sensor_id;sensor_type;location;lat;lon;timestamp;temperature;humidity
16402;DHT22;8310;44.626;11.176;2024-03-06T00:01:04;12.90;74.20
16402;DHT22;8310;44.626;11.176;2024-03-06T00:03:32;12.90;74.30
16402;DHT22;8310;44.626;11.176;2024-03-06T00:05:59;12.80;74.20
16402;DHT22;8310;44.626;11.176;2024-03-06T00:08:26;12.80;74.20
16402;DHT22;8310;44.626;11.176;2024-03-06T00:10:54;12.80;74.20
16402;DHT22;8310;44.626;11.176;2024-03-06T00:13:21;12.70;74.20
16402;DHT22;8310;44.626;11.176;2024-03-06T00:15:50;12.70;74.20
16402;DHT22;8310;44.626;11.176;2024-03-06T00:18:18;12.70;74.30
16402;DHT22;8310;44.626;11.176;2024-03-06T00:20:45;12.70;74.20
16402;DHT22;8310;44.626;11.176;2024-03-06T00:23:13;12.60;74.10
16402;DHT22;8310;44.626;11.176;2024-03-06T00:25:40;12.60;74.80
16402;DHT22;8310;44.626;11.176;2024-03-06T00:28:07;12.60;74.10
16402;DHT22;8310;44.626;11.176;2024-03-06T00:30:35;12.60;74.20
16402;DHT22;8310;44.626;11.176;2024-03-06T00:33:04;12.60;74.20
16402;DHT22;8310;44.626;11.176;2024-03-06T00:35:32;12.60;74.20
16402;DHT22;8310;44.626;11.176;2024-03-06T00:37:59;12.60;74.00
16402;DHT22;8310;44.626;11.176;2024-03-06T00:40:28;12.50;73.90
16402;DHT22;8310;44.626;11.176;2024-03-06T00:42:56;12.40;73.70
16402;DHT22;8310;44.626;11.176;2024-03-06T00:45:23;12.30;73.70
16402;DHT22;8310;44.626;11.176;2024-03-06T00:47:50;12.30;73.70
16402;DHT22;8310;44.626;11.176;2024-03-06T00:52:55;12.20;73.70
16402;DHT22;8310;44.626;11.176;2024-03-06T00:55:22;12.10;73.90
16402;DHT22;8310;44.626;11.176;2024-03-06T00:57:49;12.10;73.90
16402;DHT22;8310;44.626;11.176;2024-03-06T01:00:16;12.10;74.00
16402;DHT22;8310;44.626;11.176;2024-03-06T01:02:44;12.10;74.20
16402;DHT22;8310;44.626;11.176;2024-03-06T01:05:10;12.10;74.20
16402;DHT22;8310;44.626;11.176;2024-03-06T01:07:37;12.10;74.20
16402;DHT22;8310;44.626;11.176;2024-03-06T01:10:07;12.10;74.30
16402;DHT22;8310;44.626;11.176;2024-03-06T01:12:35;12.10;74.30
16402;DHT22;8310;44.626;11.176;2024-03-06T01:15:02;12.10;74.20
16402;DHT22;8310;44.626;11.176;2024-03-06T01:17:29;12.10;74.00
16402;DHT22;8310;44.626;11.176;2024-03-06T01:19:56;12.10;74.20
16402;DHT22;8310;44.626;11.176;2024-03-06T01:22:24;12.10;74.50
16402;DHT22;8310;44.626;11.176;2024-03-06T01:24:52;12.10;74.40
16402;DHT22;8310;44.626;11.176;2024-03-06T01:27:21;12.10;75.10
16402;DHT22;8310;44.626;11.176;2024-03-06T01:29:48;12.20;74.40
16402;DHT22;8310;44.626;11.176;2024-03-06T01:32:15;12.20;74.40
16402;DHT22;8310;44.626;11.176;2024-03-06T01:34:43;12.20;74.40
16402;DHT22;8310;44.626;11.176;2024-03-06T01:37:10;12.20;74.40
16402;DHT22;8310;44.626;11.176;2024-03-06T01:39:37;12.20;74.40
16402;DHT22;8310;44.626;11.176;2024-03-06T01:42:05;12.20;74.30
16402;DHT22;8310;44.626;11.176;2024-03-06T01:44:33;12.20;74.20
16402;DHT22;8310;44.626;11.176;2024-03-06T01:47:01;12.20;74.30
16402;DHT22;8310;44.626;11.176;2024-03-06T01:49:28;12.10;74.20
16402;DHT22;8310;44.626;11.176;2024-03-06T01:51:56;12.10;74.30
16402;DHT22;8310;44.626;11.176;2024-03-06T01:54:25;12.10;74.30
16402;DHT22;8310;44.626;11.176;2024-03-06T01:56:52;12.10;74.30
16402;DHT22;8310;44.626;11.176;2024-03-06T01:59:21;12.10;74.20
16402;DHT22;8310;44.626;11.176;2024-03-06T02:01:50;12.00;74.10
16402;DHT22;8310;44.626;11.176;2024-03-06T02:04:19;12.00;74.10
16402;DHT22;8310;44.626;11.176;2024-03-06T02:06:47;12.00;74.00
16402;DHT22;8310;44.626;11.176;2024-03-06T02:09:15;12.00;73.80
16402;DHT22;8310;44.626;11.176;2024-03-06T02:11:42;11.90;73.70
16402;DHT22;8310;44.626;11.176;2024-03-06T02:14:11;11.80;73.80
16402;DHT22;8310;44.626;11.176;2024-03-06T02:16:38;11.80;73.90
16402;DHT22;8310;44.626;11.176;2024-03-06T02:19:07;11.80;74.00
16402;DHT22;8310;44.626;11.176;2024-03-06T02:21:36;11.80;74.20
16402;DHT22;8310;44.626;11.176;2024-03-06T02:24:05;11.80;74.30
16402;DHT22;8310;44.626;11.176;2024-03-06T02:26:33;11.80;74.00
16402;DHT22;8310;44.626;11.176;2024-03-06T02:29:01;11.70;73.80
16402;DHT22;8310;44.626;11.176;2024-03-06T02:31:28;11.70;73.90
16402;DHT22;8310;44.626;11.176;2024-03-06T02:33:55;11.70;74.00
16402;DHT22;8310;44.626;11.176;2024-03-06T02:36:24;11.60;74.00
16402;DHT22;8310;44.626;11.176;2024-03-06T02:38:52;11.70;74.20
16402;DHT22;8310;44.626;11.176;2024-03-06T02:41:19;11.60;74.00
16402;DHT22;8310;44.626;11.176;2024-03-06T02:43:46;11.60;73.90
16402;DHT22;8310;44.626;11.176;2024-03-06T02:46:14;11.50;73.80
16402;DHT22;8310;44.626;11.176;2024-03-06T02:48:41;11.50;73.90
16402;DHT22;8310;44.626;11.176;2024-03-06T02:51:08;11.50;73.90
16402;DHT22;8310;44.626;11.176;2024-03-06T02:53:35;11.40;73.90
16402;DHT22;8310;44.626;11.176;2024-03-06T02:56:05;11.40;74.10
16402;DHT22;8310;44.626;11.176;2024-03-06T02:58:32;11.50;74.20
16402;DHT22;8310;44.626;11.176;2024-03-06T03:01:02;11.50;74.30
16402;DHT22;8310;44.626;11.176;2024-03-06T03:03:29;11.50;74.30
16402;DHT22;8310;44.626;11.176;2024-03-06T03:05:57;11.50;74.20
16402;DHT22;8310;44.626;11.176;2024-03-06T03:08:24;11.50;74.10
16402;DHT22;8310;44.626;11.176;2024-03-06T03:10:51;11.50;74.00
16402;DHT22;8310;44.626;11.176;2024-03-06T03:13:20;11.40;73.80
16402;DHT22;8310;44.626;11.176;2024-03-06T03:15:49;11.40;73.70
16402;DHT22;8310;44.626;11.176;2024-03-06T03:18:16;11.30;73.50
16402;DHT22;8310;44.626;11.176;2024-03-06T03:20:43;11.20;73.40
16402;DHT22;8310;44.626;11.176;2024-03-06T03:23:11;11.10;73.50
16402;DHT22;8310;44.626;11.176;2024-03-06T03:25:40;11.00;73.50
16402;DHT22;8310;44.626;11.176;2024-03-06T03:28:08;11.00;73.60
16402;DHT22;8310;44.626;11.176;2024-03-06T03:30:37;10.90;73.60
16402;DHT22;8310;44.626;11.176;2024-03-06T03:33:04;10.90;73.50
16402;DHT22;8310;44.626;11.176;2024-03-06T03:35:32;10.80;73.40
16402;DHT22;8310;44.626;11.176;2024-03-06T03:38:00;10.80;73.60
16402;DHT22;8310;44.626;11.176;2024-03-06T03:40:29;10.80;74.60
16402;DHT22;8310;44.626;11.176;2024-03-06T03:42:55;10.80;73.90
16402;DHT22;8310;44.626;11.176;2024-03-06T03:45:23;10.80;73.80
16402;DHT22;8310;44.626;11.176;2024-03-06T03:47:52;10.70;73.70
16402;DHT22;8310;44.626;11.176;2024-03-06T03:50:19;10.70;73.70
16402;DHT22;8310;44.626;11.176;2024-03-06T03:52:46;10.70;73.60
16402;DHT22;8310;44.626;11.176;2024-03-06T03:55:14;10.60;73.50
16402;DHT22;8310;44.626;11.176;2024-03-06T03:57:41;10.60;73.50
16402;DHT22;8310;44.626;11.176;2024-03-06T04:00:08;10.50;74.30
16402;DHT22;8310;44.626;11.176;2024-03-06T04:02:36;10.50;73.40
16402;DHT22;8310;44.626;11.176;2024-03-06T04:05:05;10.40;73.40
16402;DHT22;8310;44.626;11.176;2024-03-06T04:07:35;10.40;73.20
16402;DHT22;8310;44.626;11.176;2024-03-06T04:10:02;10.20;72.90
16402;DHT22;8310;44.626;11.176;2024-03-06T04:12:30;10.10;73.00
16402;DHT22;8310;44.626;11.176;2024-03-06T04:14:58;10.00;73.10
16402;DHT22;8310;44.626;11.176;2024-03-06T04:17:25;10.00;73.20
16402;DHT22;8310;44.626;11.176;2024-03-06T04:19:53;10.00;73.20
16402;DHT22;8310;44.626;11.176;2024-03-06T04:22:22;9.90;73.20
16402;DHT22;8310;44.626;11.176;2024-03-06T04:24:49;9.80;73.00
16402;DHT22;8310;44.626;11.176;2024-03-06T04:27:16;9.80;72.90
16402;DHT22;8310;44.626;11.176;2024-03-06T04:29:44;9.60;72.80
16402;DHT22;8310;44.626;11.176;2024-03-06T04:32:11;9.60;72.90
16402;DHT22;8310;44.626;11.176;2024-03-06T04:34:38;9.50;72.90
16402;DHT22;8310;44.626;11.176;2024-03-06T04:37:05;9.50;73.10
16402;DHT22;8310;44.626;11.176;2024-03-06T04:39:34;9.50;73.20
16402;DHT22;8310;44.626;11.176;2024-03-06T04:42:02;9.50;73.30
16402;DHT22;8310;44.626;11.176;2024-03-06T04:44:32;9.50;73.40
16402;DHT22;8310;44.626;11.176;2024-03-06T04:46:59;9.50;73.40
16402;DHT22;8310;44.626;11.176;2024-03-06T04:49:27;9.60;73.30
16402;DHT22;8310;44.626;11.176;2024-03-06T04:51:54;9.50;72.90
16402;DHT22;8310;44.626;11.176;2024-03-06T04:54:21;9.40;72.90
16402;DHT22;8310;44.626;11.176;2024-03-06T04:56:50;9.40;72.90
16402;DHT22;8310;44.626;11.176;2024-03-06T04:59:18;9.30;73.00
16402;DHT22;8310;44.626;11.176;2024-03-06T05:01:45;9.30;73.20
16402;DHT22;8310;44.626;11.176;2024-03-06T05:04:13;9.30;73.40
16402;DHT22;8310;44.626;11.176;2024-03-06T05:06:40;9.40;73.50
16402;DHT22;8310;44.626;11.176;2024-03-06T05:09:07;9.30;73.20
16402;DHT22;8310;44.626;11.176;2024-03-06T05:11:37;9.20;73.00
16402;DHT22;8310;44.626;11.176;2024-03-06T05:14:06;9.20;73.00
16402;DHT22;8310;44.626;11.176;2024-03-06T05:16:33;9.10;72.90
16402;DHT22;8310;44.626;11.176;2024-03-06T05:19:00;9.10;73.10
16402;DHT22;8310;44.626;11.176;2024-03-06T05:21:28;9.10;73.10
16402;DHT22;8310;44.626;11.176;2024-03-06T05:23:55;9.00;73.00
16402;DHT22;8310;44.626;11.176;2024-03-06T05:26:23;9.00;73.10
16402;DHT22;8310;44.626;11.176;2024-03-06T05:28:51;9.00;73.20
16402;DHT22;8310;44.626;11.176;2024-03-06T05:31:26;9.10;73.40
16402;DHT22;8310;44.626;11.176;2024-03-06T05:33:54;9.10;73.30
16402;DHT22;8310;44.626;11.176;2024-03-06T05:36:21;9.10;73.40
16402;DHT22;8310;44.626;11.176;2024-03-06T05:38:48;9.10;73.40
16402;DHT22;8310;44.626;11.176;2024-03-06T05:41:15;9.10;73.10
16402;DHT22;8310;44.626;11.176;2024-03-06T05:43:43;9.10;73.10
16402;DHT22;8310;44.626;11.176;2024-03-06T05:46:10;9.10;73.20
16402;DHT22;8310;44.626;11.176;2024-03-06T05:48:39;9.10;73.20
16402;DHT22;8310;44.626;11.176;2024-03-06T05:51:07;9.00;72.90
16402;DHT22;8310;44.626;11.176;2024-03-06T05:53:37;8.90;72.80
16402;DHT22;8310;44.626;11.176;2024-03-06T05:56:08;8.90;73.10
16402;DHT22;8310;44.626;11.176;2024-03-06T05:58:35;8.90;73.20
16402;DHT22;8310;44.626;11.176;2024-03-06T06:01:03;8.90;73.50
16402;DHT22;8310;44.626;11.176;2024-03-06T06:03:30;8.90;73.70
16402;DHT22;8310;44.626;11.176;2024-03-06T06:06:02;9.00;73.70
16402;DHT22;8310;44.626;11.176;2024-03-06T06:08:30;9.00;73.80
16402;DHT22;8310;44.626;11.176;2024-03-06T06:10:57;9.00;73.60
16402;DHT22;8310;44.626;11.176;2024-03-06T06:13:24;9.10;73.60
16402;DHT22;8310;44.626;11.176;2024-03-06T06:15:52;9.10;73.90
16402;DHT22;8310;44.626;11.176;2024-03-06T06:18:19;9.10;74.40
16402;DHT22;8310;44.626;11.176;2024-03-06T06:20:46;9.20;75.30
16402;DHT22;8310;44.626;11.176;2024-03-06T06:23:15;9.40;76.00
16402;DHT22;8310;44.626;11.176;2024-03-06T06:25:42;9.60;76.70
16402;DHT22;8310;44.626;11.176;2024-03-06T06:28:10;9.80;77.00
16402;DHT22;8310;44.626;11.176;2024-03-06T06:30:38;10.00;77.70
16402;DHT22;8310;44.626;11.176;2024-03-06T06:33:05;10.20;78.30
16402;DHT22;8310;44.626;11.176;2024-03-06T06:35:32;10.50;78.60
16402;DHT22;8310;44.626;11.176;2024-03-06T06:38:00;10.60;78.80
16402;DHT22;8310;44.626;11.176;2024-03-06T06:40:28;10.90;79.90
16402;DHT22;8310;44.626;11.176;2024-03-06T06:42:57;11.20;81.10
16402;DHT22;8310;44.626;11.176;2024-03-06T06:45:24;11.70;83.50
16402;DHT22;8310;44.626;11.176;2024-03-06T06:47:51;12.40;86.30
16402;DHT22;8310;44.626;11.176;2024-03-06T06:50:19;13.20;88.70
16402;DHT22;8310;44.626;11.176;2024-03-06T06:52:48;13.90;89.30
16402;DHT22;8310;44.626;11.176;2024-03-06T06:55:16;14.50;89.50
16402;DHT22;8310;44.626;11.176;2024-03-06T06:57:44;15.00;90.10
16402;DHT22;8310;44.626;11.176;2024-03-06T07:00:13;15.50;91.00
16402;DHT22;8310;44.626;11.176;2024-03-06T07:02:44;16.10;91.80
16402;DHT22;8310;44.626;11.176;2024-03-06T07:05:11;16.60;91.80
16402;DHT22;8310;44.626;11.176;2024-03-06T07:07:38;17.10;91.80
16402;DHT22;8310;44.626;11.176;2024-03-06T07:10:06;17.40;91.90
16402;DHT22;8310;44.626;11.176;2024-03-06T07:12:33;17.80;92.40
16402;DHT22;8310;44.626;11.176;2024-03-06T07:15:03;18.30;92.90
16402;DHT22;8310;44.626;11.176;2024-03-06T07:17:30;18.70;93.10
16402;DHT22;8310;44.626;11.176;2024-03-06T07:19:57;19.10;93.10
16402;DHT22;8310;44.626;11.176;2024-03-06T07:22:24;19.30;93.00
16402;DHT22;8310;44.626;11.176;2024-03-06T07:24:52;19.50;93.20
16402;DHT22;8310;44.626;11.176;2024-03-06T07:27:19;19.80;93.30
16402;DHT22;8310;44.626;11.176;2024-03-06T07:29:46;20.00;93.30
16402;DHT22;8310;44.626;11.176;2024-03-06T07:32:15;20.20;93.10
16402;DHT22;8310;44.626;11.176;2024-03-06T07:34:42;20.30;92.80
16402;DHT22;8310;44.626;11.176;2024-03-06T07:37:09;20.40;92.00
16402;DHT22;8310;44.626;11.176;2024-03-06T07:39:37;20.40;90.80
16402;DHT22;8310;44.626;11.176;2024-03-06T07:42:04;20.20;89.20
16402;DHT22;8310;44.626;11.176;2024-03-06T07:44:32;20.00;85.90
16402;DHT22;8310;44.626;11.176;2024-03-06T07:47:00;19.60;83.10
16402;DHT22;8310;44.626;11.176;2024-03-06T07:49:29;19.10;80.90
16402;DHT22;8310;44.626;11.176;2024-03-06T07:51:58;18.50;79.20
16402;DHT22;8310;44.626;11.176;2024-03-06T07:54:25;17.90;78.20
16402;DHT22;8310;44.626;11.176;2024-03-06T07:56:52;17.40;77.50
16402;DHT22;8310;44.626;11.176;2024-03-06T07:59:21;17.00;77.10
16402;DHT22;8310;44.626;11.176;2024-03-06T08:01:49;16.60;77.00
16402;DHT22;8310;44.626;11.176;2024-03-06T08:04:17;16.40;77.10
16402;DHT22;8310;44.626;11.176;2024-03-06T08:06:47;16.30;77.20
16402;DHT22;8310;44.626;11.176;2024-03-06T08:09:14;16.20;77.00
16402;DHT22;8310;44.626;11.176;2024-03-06T08:11:41;16.10;76.80
16402;DHT22;8310;44.626;11.176;2024-03-06T08:14:09;16.00;76.50
16402;DHT22;8310;44.626;11.176;2024-03-06T08:16:36;15.80;75.90
16402;DHT22;8310;44.626;11.176;2024-03-06T08:19:04;15.70;75.60
16402;DHT22;8310;44.626;11.176;2024-03-06T08:21:31;15.60;75.50
16402;DHT22;8310;44.626;11.176;2024-03-06T08:24:00;15.50;75.50
16402;DHT22;8310;44.626;11.176;2024-03-06T08:26:28;15.40;75.50
16402;DHT22;8310;44.626;11.176;2024-03-06T08:28:55;15.40;75.70
16402;DHT22;8310;44.626;11.176;2024-03-06T08:31:22;15.40;75.70
16402;DHT22;8310;44.626;11.176;2024-03-06T08:33:51;15.40;75.70
16402;DHT22;8310;44.626;11.176;2024-03-06T08:36:20;15.40;75.90
16402;DHT22;8310;44.626;11.176;2024-03-06T08:38:48;15.50;75.80
16402;DHT22;8310;44.626;11.176;2024-03-06T08:41:16;15.50;75.60
16402;DHT22;8310;44.626;11.176;2024-03-06T08:43:43;15.50;75.60
16402;DHT22;8310;44.626;11.176;2024-03-06T08:46:11;15.60;76.60
16402;DHT22;8310;44.626;11.176;2024-03-06T08:48:38;15.70;76.30
16402;DHT22;8310;44.626;11.176;2024-03-06T08:51:05;15.80;76.30
16402;DHT22;8310;44.626;11.176;2024-03-06T08:53:36;15.90;76.20
16402;DHT22;8310;44.626;11.176;2024-03-06T08:56:04;16.00;76.30
16402;DHT22;8310;44.626;11.176;2024-03-06T08:58:34;16.00;76.00
16402;DHT22;8310;44.626;11.176;2024-03-06T09:01:01;16.10;76.00
16402;DHT22;8310;44.626;11.176;2024-03-06T09:03:30;16.10;76.20
16402;DHT22;8310;44.626;11.176;2024-03-06T09:05:57;16.20;76.10
16402;DHT22;8310;44.626;11.176;2024-03-06T09:08:25;16.20;76.00
16402;DHT22;8310;44.626;11.176;2024-03-06T09:10:52;16.30;76.00
16402;DHT22;8310;44.626;11.176;2024-03-06T09:13:19;16.30;76.00
16402;DHT22;8310;44.626;11.176;2024-03-06T09:15:49;16.40;76.20
16402;DHT22;8310;44.626;11.176;2024-03-06T09:18:16;16.50;76.50
16402;DHT22;8310;44.626;11.176;2024-03-06T09:20:44;16.70;77.00
16402;DHT22;8310;44.626;11.176;2024-03-06T09:23:11;16.80;77.10
16402;DHT22;8310;44.626;11.176;2024-03-06T09:25:39;17.00;76.90
16402;DHT22;8310;44.626;11.176;2024-03-06T09:28:05;17.00;76.80
16402;DHT22;8310;44.626;11.176;2024-03-06T09:30:34;17.10;76.60
16402;DHT22;8310;44.626;11.176;2024-03-06T09:33:03;17.10;76.60
16402;DHT22;8310;44.626;11.176;2024-03-06T09:35:30;17.20;76.80
16402;DHT22;8310;44.626;11.176;2024-03-06T09:37:58;17.30;77.00
16402;DHT22;8310;44.626;11.176;2024-03-06T09:40:27;17.40;77.00
16402;DHT22;8310;44.626;11.176;2024-03-06T09:42:54;17.40;76.80
16402;DHT22;8310;44.626;11.176;2024-03-06T09:45:22;17.50;76.80
16402;DHT22;8310;44.626;11.176;2024-03-06T09:47:49;17.50;76.70
16402;DHT22;8310;44.626;11.176;2024-03-06T09:50:19;17.70;76.90
16402;DHT22;8310;44.626;11.176;2024-03-06T09:52:51;17.80;77.30
16402;DHT22;8310;44.626;11.176;2024-03-06T09:55:18;17.90;77.20
16402;DHT22;8310;44.626;11.176;2024-03-06T09:57:45;18.00;77.20
16402;DHT22;8310;44.626;11.176;2024-03-06T10:00:12;18.10;77.40
16402;DHT22;8310;44.626;11.176;2024-03-06T10:02:41;18.30;77.50
16402;DHT22;8310;44.626;11.176;2024-03-06T10:05:21;18.40;77.40
16402;DHT22;8310;44.626;11.176;2024-03-06T10:07:49;18.50;77.00
16402;DHT22;8310;44.626;11.176;2024-03-06T10:10:17;18.50;76.80
16402;DHT22;8310;44.626;11.176;2024-03-06T10:12:45;18.50;76.50
16402;DHT22;8310;44.626;11.176;2024-03-06T10:15:13;18.50;76.90
16402;DHT22;8310;44.626;11.176;2024-03-06T10:17:40;18.40;76.00
16402;DHT22;8310;44.626;11.176;2024-03-06T10:20:18;18.40;76.20
16402;DHT22;8310;44.626;11.176;2024-03-06T10:22:48;18.40;76.50
16402;DHT22;8310;44.626;11.176;2024-03-06T10:25:18;18.50;76.90
16402;DHT22;8310;44.626;11.176;2024-03-06T10:27:45;18.60;76.90
16402;DHT22;8310;44.626;11.176;2024-03-06T10:30:13;18.60;76.90
16402;DHT22;8310;44.626;11.176;2024-03-06T10:32:41;18.80;77.00
16402;DHT22;8310;44.626;11.176;2024-03-06T10:35:17;18.80;76.70
16402;DHT22;8310;44.626;11.176;2024-03-06T10:37:45;18.90;76.70
16402;DHT22;8310;44.626;11.176;2024-03-06T10:40:14;18.90;76.60
16402;DHT22;8310;44.626;11.176;2024-03-06T10:42:42;18.90;76.80
16402;DHT22;8310;44.626;11.176;2024-03-06T10:45:10;19.00;76.90
16402;DHT22;8310;44.626;11.176;2024-03-06T10:47:40;19.10;76.80
16402;DHT22;8310;44.626;11.176;2024-03-06T10:50:08;19.10;76.90
16402;DHT22;8310;44.626;11.176;2024-03-06T10:52:37;19.20;76.90
16402;DHT22;8310;44.626;11.176;2024-03-06T10:55:05;19.30;77.00
16402;DHT22;8310;44.626;11.176;2024-03-06T10:57:34;19.30;77.80
16402;DHT22;8310;44.626;11.176;2024-03-06T11:00:02;19.40;77.10
16402;DHT22;8310;44.626;11.176;2024-03-06T11:02:29;19.50;77.40
16402;DHT22;8310;44.626;11.176;2024-03-06T11:04:57;19.60;77.70
16402;DHT22;8310;44.626;11.176;2024-03-06T11:07:25;19.80;77.70
16402;DHT22;8310;44.626;11.176;2024-03-06T11:09:53;19.90;77.10
16402;DHT22;8310;44.626;11.176;2024-03-06T11:12:35;19.90;76.90
16402;DHT22;8310;44.626;11.176;2024-03-06T11:15:08;19.90;76.60
16402;DHT22;8310;44.626;11.176;2024-03-06T11:17:35;19.90;76.70
16402;DHT22;8310;44.626;11.176;2024-03-06T11:20:13;19.90;76.10
16402;DHT22;8310;44.626;11.176;2024-03-06T11:28:22;19.60;75.80
16402;DHT22;8310;44.626;11.176;2024-03-06T11:30:54;19.60;75.50
16402;DHT22;8310;44.626;11.176;2024-03-06T11:33:23;19.50;74.90
16402;DHT22;8310;44.626;11.176;2024-03-06T11:38:37;19.40;76.00
16402;DHT22;8310;44.626;11.176;2024-03-06T11:41:05;19.40;75.10
16402;DHT22;8310;44.626;11.176;2024-03-06T11:43:41;19.40;75.40
16402;DHT22;8310;44.626;11.176;2024-03-06T11:46:09;19.40;75.20
16402;DHT22;8310;44.626;11.176;2024-03-06T11:48:36;19.50;76.10
16402;DHT22;8310;44.626;11.176;2024-03-06T11:51:04;19.50;76.30
16402;DHT22;8310;44.626;11.176;2024-03-06T11:53:32;19.60;76.40
16402;DHT22;8310;44.626;11.176;2024-03-06T11:55:59;19.70;76.40
16402;DHT22;8310;44.626;11.176;2024-03-06T11:58:27;19.80;76.20
16402;DHT22;8310;44.626;11.176;2024-03-06T12:00:56;20.00;76.50
16402;DHT22;8310;44.626;11.176;2024-03-06T12:03:23;20.00;75.60
16402;DHT22;8310;44.626;11.176;2024-03-06T12:05:50;19.90;75.80
16402;DHT22;8310;44.626;11.176;2024-03-06T12:08:18;20.00;76.30
16402;DHT22;8310;44.626;11.176;2024-03-06T12:10:46;20.10;76.70
16402;DHT22;8310;44.626;11.176;2024-03-06T12:13:14;20.20;76.40
16402;DHT22;8310;44.626;11.176;2024-03-06T12:15:42;20.30;75.30
16402;DHT22;8310;44.626;11.176;2024-03-06T12:18:11;20.30;75.20
16402;DHT22;8310;44.626;11.176;2024-03-06T12:20:41;20.20;75.30
16402;DHT22;8310;44.626;11.176;2024-03-06T12:23:18;20.10;75.20
16402;DHT22;8310;44.626;11.176;2024-03-06T12:25:46;20.10;75.80
16402;DHT22;8310;44.626;11.176;2024-03-06T12:28:13;20.10;75.70
16402;DHT22;8310;44.626;11.176;2024-03-06T12:30:40;20.20;76.10
16402;DHT22;8310;44.626;11.176;2024-03-06T12:33:11;20.30;76.40
16402;DHT22;8310;44.626;11.176;2024-03-06T12:35:43;20.40;76.40
16402;DHT22;8310;44.626;11.176;2024-03-06T12:38:13;20.50;76.10
16402;DHT22;8310;44.626;11.176;2024-03-06T12:40:41;20.60;76.10
16402;DHT22;8310;44.626;11.176;2024-03-06T12:43:08;20.70;76.10
16402;DHT22;8310;44.626;11.176;2024-03-06T12:45:36;20.80;76.00
16402;DHT22;8310;44.626;11.176;2024-03-06T12:48:03;20.90;76.00
16402;DHT22;8310;44.626;11.176;2024-03-06T12:50:33;21.00;75.60
16402;DHT22;8310;44.626;11.176;2024-03-06T12:53:01;21.00;75.30
16402;DHT22;8310;44.626;11.176;2024-03-06T12:55:29;20.90;75.10
16402;DHT22;8310;44.626;11.176;2024-03-06T12:57:57;20.90;75.00
16402;DHT22;8310;44.626;11.176;2024-03-06T13:00:24;20.90;74.60
16402;DHT22;8310;44.626;11.176;2024-03-06T13:02:51;20.80;74.50
16402;DHT22;8310;44.626;11.176;2024-03-06T13:05:18;20.70;74.40
16402;DHT22;8310;44.626;11.176;2024-03-06T13:07:48;20.70;74.60
16402;DHT22;8310;44.626;11.176;2024-03-06T13:10:15;20.70;74.90
16402;DHT22;8310;44.626;11.176;2024-03-06T13:12:43;20.80;75.10
16402;DHT22;8310;44.626;11.176;2024-03-06T13:15:10;20.90;75.00
16402;DHT22;8310;44.626;11.176;2024-03-06T13:17:37;20.90;74.90
16402;DHT22;8310;44.626;11.176;2024-03-06T13:20:05;20.90;74.80
16402;DHT22;8310;44.626;11.176;2024-03-06T13:22:34;20.90;74.70
16402;DHT22;8310;44.626;11.176;2024-03-06T13:25:03;20.90;74.30
16402;DHT22;8310;44.626;11.176;2024-03-06T13:27:31;20.80;74.10
16402;DHT22;8310;44.626;11.176;2024-03-06T13:29:59;20.90;74.70
16402;DHT22;8310;44.626;11.176;2024-03-06T13:32:26;20.90;75.30
16402;DHT22;8310;44.626;11.176;2024-03-06T13:34:53;21.10;75.70
16402;DHT22;8310;44.626;11.176;2024-03-06T13:37:21;21.30;75.50
16402;DHT22;8310;44.626;11.176;2024-03-06T13:39:49;21.40;75.60
16402;DHT22;8310;44.626;11.176;2024-03-06T13:42:17;21.50;75.10
16402;DHT22;8310;44.626;11.176;2024-03-06T13:44:44;21.50;74.80
16402;DHT22;8310;44.626;11.176;2024-03-06T13:47:14;21.40;75.30
16402;DHT22;8310;44.626;11.176;2024-03-06T13:49:42;21.40;74.60
16402;DHT22;8310;44.626;11.176;2024-03-06T13:52:10;21.40;74.60
16402;DHT22;8310;44.626;11.176;2024-03-06T13:54:39;21.40;74.30
16402;DHT22;8310;44.626;11.176;2024-03-06T13:57:07;21.30;74.20
16402;DHT22;8310;44.626;11.176;2024-03-06T13:59:36;21.30;74.70
16402;DHT22;8310;44.626;11.176;2024-03-06T14:02:04;21.40;75.20
16402;DHT22;8310;44.626;11.176;2024-03-06T14:04:31;21.60;75.40
16402;DHT22;8310;44.626;11.176;2024-03-06T14:06:59;21.70;75.40
16402;DHT22;8310;44.626;11.176;2024-03-06T14:09:26;21.80;74.90
16402;DHT22;8310;44.626;11.176;2024-03-06T14:11:53;21.80;74.10
16402;DHT22;8310;44.626;11.176;2024-03-06T14:14:24;21.70;74.20
16402;DHT22;8310;44.626;11.176;2024-03-06T14:16:53;21.70;74.20
16402;DHT22;8310;44.626;11.176;2024-03-06T14:19:21;21.70;74.00
16402;DHT22;8310;44.626;11.176;2024-03-06T14:21:48;21.60;74.20
16402;DHT22;8310;44.626;11.176;2024-03-06T14:24:16;21.70;74.70
16402;DHT22;8310;44.626;11.176;2024-03-06T14:26:44;21.70;74.70
16402;DHT22;8310;44.626;11.176;2024-03-06T14:29:11;21.80;74.70
16402;DHT22;8310;44.626;11.176;2024-03-06T14:31:38;21.80;74.50
16402;DHT22;8310;44.626;11.176;2024-03-06T14:34:07;21.80;74.70
16402;DHT22;8310;44.626;11.176;2024-03-06T14:36:34;21.80;74.90
16402;DHT22;8310;44.626;11.176;2024-03-06T14:39:02;21.90;74.90
16402;DHT22;8310;44.626;11.176;2024-03-06T14:41:29;21.90;74.80
16402;DHT22;8310;44.626;11.176;2024-03-06T14:43:56;22.00;74.60
16402;DHT22;8310;44.626;11.176;2024-03-06T14:46:24;22.00;74.60
16402;DHT22;8310;44.626;11.176;2024-03-06T14:48:51;22.00;74.80
16402;DHT22;8310;44.626;11.176;2024-03-06T14:51:20;22.10;75.20
16402;DHT22;8310;44.626;11.176;2024-03-06T14:53:48;22.20;75.60
16402;DHT22;8310;44.626;11.176;2024-03-06T14:56:15;22.40;75.70
16402;DHT22;8310;44.626;11.176;2024-03-06T14:58:43;22.50;75.20
16402;DHT22;8310;44.626;11.176;2024-03-06T15:01:11;22.50;75.20
16402;DHT22;8310;44.626;11.176;2024-03-06T15:03:38;22.60;75.30
16402;DHT22;8310;44.626;11.176;2024-03-06T15:06:06;22.70;75.30
16402;DHT22;8310;44.626;11.176;2024-03-06T15:08:35;22.80;74.90
16402;DHT22;8310;44.626;11.176;2024-03-06T15:11:03;22.80;74.90
16402;DHT22;8310;44.626;11.176;2024-03-06T15:13:30;22.90;74.90
16402;DHT22;8310;44.626;11.176;2024-03-06T15:15:58;22.90;74.80
16402;DHT22;8310;44.626;11.176;2024-03-06T15:18:27;23.00;74.40
16402;DHT22;8310;44.626;11.176;2024-03-06T15:20:54;22.90;73.70
16402;DHT22;8310;44.626;11.176;2024-03-06T15:23:22;22.70;73.30
16402;DHT22;8310;44.626;11.176;2024-03-06T15:25:51;22.60;73.10
16402;DHT22;8310;44.626;11.176;2024-03-06T15:28:22;22.40;73.10
16402;DHT22;8310;44.626;11.176;2024-03-06T15:30:52;22.40;73.50
16402;DHT22;8310;44.626;11.176;2024-03-06T15:33:20;22.40;73.60
16402;DHT22;8310;44.626;11.176;2024-03-06T15:35:47;22.40;73.60
16402;DHT22;8310;44.626;11.176;2024-03-06T15:38:14;22.40;73.40
16402;DHT22;8310;44.626;11.176;2024-03-06T15:40:42;22.40;73.30
16402;DHT22;8310;44.626;11.176;2024-03-06T15:43:10;22.40;73.10
16402;DHT22;8310;44.626;11.176;2024-03-06T15:45:37;22.40;73.00
16402;DHT22;8310;44.626;11.176;2024-03-06T15:48:05;22.30;72.70